Hicksville, OH

12:43 AM EST on November 27, 2014 (GMT -0500)
Hillsdale Municipal | Change Station
CLOSE
Current Station
Airport
Location: Hillsdale,
Elevation: 1181 ft
Nearby Weather Stations

Elev 1181 ft 41.92 °N, 84.59 °W | Updated 9 minutes ago

Overcast
Overcast
29 °F
Feels Like 22 °F
N
6
Wind Variable Wind from NNW

Today
High -- | Low -- °F
--% Chance of Precip.
Yesterday
High -- | Low -- °F
Precip. -- in
7:41 AM 5:11 PM
Waxing Crescent, 26% visible
Pressure 30.09 in
Visibility 7.0 miles
Clouds Overcast 3600 ft
Windchill 22 °F
Dew Point 26 °F
Humidity 90%
Rainfall 0.00 in
Snow Depth Not available.
UV 0 out of 12
Pollen .10 out of 12
Air Quality Not available.
Flu Activity Not available.
METAR KJYM 270534Z AUTO 34005KT 7SM -SN OVC036 M02/M03 A3009 RMK AO2 T10191034

More Conditions Fewer Conditions

Pressure 30.09 in
Visibility 7.0 miles
Clouds Overcast 3600 ft
Windchill 22 °F
Dew Point 26 °F
Humidity 90%
Rainfall 0.00 in
Snow Depth Not available.
UV 0 out of 12
Pollen .10 out of 12
Air Quality Not available.
Flu Activity Not available.
METAR KJYM 270534Z AUTO 34005KT 7SM -SN OVC036 M02/M03 A3009 RMK AO2 T10191034

More Conditions Fewer Conditions

10-Day Weather Forecast

Almanac

Astronomy

Nov. 27, 2014 Rise Set
Actual Time
Civil Twilight
Nautical Twilight
Astronomical Twilight
Moon
Length of Visible Light
Length of Day
Tomorrow will be .
, % of the Moon is Illuminated

Today's Extremes

State Highs State Lows

Community

WunderPhotos

Upload Photos

1,773,961 photos uploaded!

WunderBlogs® & News

Nearby

Air Quality

  Air Quality AQ Index Pollutant
Not available.

Snow Depth

Station Depth Elevation

Earthquake Activity

City Distance Mag. Time & Date
Minimum magnitude displayed is 2.5.

Coastal Water Temperatures

Place Temperature

Nearby Weather Stations